LCPH/PFO METAR and TAF weather

Enter ICAO airport designator
Station Type Date Time Source
LCPH METAR 2019/08/24 08:90 UTC NOAA

LCPH 240890Z 26005KT 9999 FEW030 31/25 Q1009


Station Type Date Time Source
LCPH Decoded METAR 2019/08/24 08:90 UTC NOAA

Station name not available
Aug 24, 2019 - 05:30 AM EDT / 2019.08.24 0890 UTC
Wind: from the W (260 degrees) at 6 MPH (5 KT):0
Visibility: greater than 7 mile(s):0
Sky conditions: mostly clear
Temperature: 87 F (31 C)
Heat index: 97.5 F (36.4 C):1
Dew Point: 77 F (25 C)
Relative Humidity: 70%
Pressure (altimeter): 29.80 in. Hg (1009 hPa)
ob: LCPH 240890Z 26005KT 9999 FEW030 31/25 Q1009
cycle: 9

Station Type Date Time Source
LCPH TAF 2019/08/24 06:30 UTC NOAA

TAF LCPH 240530Z 2406/2506 02006KT CAVOK
BECMG 2408/2412 27011KT
BECMG 2415/2419 34006KT

Example: see airport list